Huvudsida
METAR-TAF:

METAR-TAF

Flygplatser :

Grove, Oklahoma, USA

latitud: 36-36-19N, longitud: 094-44-19W, höjd: 254 m

Aktuellt väderrapport

Denna rapport gjordes för 7 minuter sedan, klockan 10:55 UTC
Vind 4 kt från nordost
Temperatur 11°C
Fuktighet 94%
Tryck 1017 hPa
Sikt: 16.1 km
Klar himmel

METAR: KGMJ 201055Z AUTO 05004KT 10SM CLR 11/10 A3002 RMK AO2

Tid: 06:02 (11:02 UTC)


TAF: saknas

Aktuella väderrapporter och prognoser från 4000 flygplatser (METAR- och TAF-rapporter).

De tillgängliga stationerna syns som gula och röda prickar på kartan.

För musen över prickarna för att se namnen på stationerna.

Klicka sedan för att få väderrapporter och prognoser.

För att ändra kartan: Klicka på de gröna knapparna med ett svart kors på för att zooma in; den gröna knappen med ett streck på för att zooma ut; eller på de gröna pilarna för angränsande kartor.


METAR-TAF: